Time;durP1;ratioP1;P1;durP2;ratioP2;P2;SDS_P1;SDS_P2;PMS_P1;PMS_P2;Temp;Humidity;BMP_temperature;BMP_pressure;BME280_temperature;BME280_humidity;BME280_pressure;Samples;Min_cycle;Max_cycle;Signal;HPM_P1;HPM_P2
2022/09/29 00:01:33;;;;;;;7.68;4.20;;;;;;;10.58;69.36;98832.97;4893196;29;20405;-79
2022/09/29 00:03:59;;;;;;;9.00;4.07;;;;;;;10.63;69.50;98844.97;4904982;29;20045;-79
2022/09/29 00:06:25;;;;;;;6.30;4.25;;;;;;;10.63;69.14;98841.53;4912085;29;20055;-80
2022/09/29 00:08:51;;;;;;;6.57;4.32;;;;;;;10.54;69.24;98837.41;4890486;29;20056;-79
2022/09/29 00:11:18;;;;;;;9.27;4.50;;;;;;;10.58;69.72;98851.19;4875281;29;20051;-79
2022/09/29 00:13:46;;;;;;;8.05;5.10;;;;;;;10.58;69.64;98853.78;4908361;29;20100;-78
2022/09/29 00:16:13;;;;;;;5.70;4.30;;;;;;;10.56;69.39;98851.25;4896071;29;20041;-80
2022/09/29 00:18:39;;;;;;;6.28;4.60;;;;;;;10.52;69.26;98845.25;4909614;29;20041;-78
2022/09/29 00:21:18;;;;;;;8.68;4.95;;;;;;;10.52;69.34;98860.84;4896924;29;20044;-79
2022/09/29 00:23:45;;;;;;;7.65;4.22;;;;;;;10.47;69.74;98851.44;4900548;29;20043;-79
2022/09/29 00:26:15;;;;;;;7.03;4.47;;;;;;;10.52;69.37;98860.84;4877621;29;20055;-79
2022/09/29 00:28:52;;;;;;;12.65;4.78;;;;;;;10.55;69.50;98865.13;4893756;29;20045;-77
2022/09/29 00:31:19;;;;;;;8.05;4.30;;;;;;;10.54;69.77;98863.44;4892742;29;20048;-79
2022/09/29 00:33:46;;;;;;;8.52;4.85;;;;;;;10.56;69.67;98872.06;4893464;29;20045;-79
2022/09/29 00:36:15;;;;;;;7.55;4.57;;;;;;;10.52;69.66;98855.63;4891897;29;20044;-79
2022/09/29 00:38:43;;;;;;;6.07;4.50;;;;;;;10.53;69.62;98865.16;4889277;29;20051;-79
2022/09/29 00:41:24;;;;;;;17.10;5.72;;;;;;;10.58;69.05;98866.78;4893751;29;20057;-79
2022/09/29 00:43:53;;;;;;;9.70;4.82;;;;;;;10.58;69.41;98864.19;4889620;29;20084;-78
2022/09/29 00:46:36;;;;;;;6.43;4.65;;;;;;;10.58;69.22;98869.41;4890522;29;20076;-78
2022/09/29 00:49:09;;;;;;;9.82;4.75;;;;;;;10.55;69.20;98878.97;4907743;29;20107;-79
2022/09/29 00:51:39;;;;;;;11.77;4.90;;;;;;;10.52;69.14;98884.25;4903517;29;20140;-78
2022/09/29 00:54:07;;;;;;;9.02;5.10;;;;;;;10.48;69.75;98876.56;4898825;29;20037;-78
2022/09/29 00:56:38;;;;;;;6.65;4.50;;;;;;;10.53;69.28;98887.72;4894643;29;20067;-79
2022/09/29 00:59:08;;;;;;;6.97;4.65;;;;;;;10.52;69.35;98889.44;4877482;29;20088;-76
2022/09/29 01:01:35;;;;;;;8.90;4.50;;;;;;;10.49;69.30;98879.13;4892522;29;20052;-77
2022/09/29 01:04:10;;;;;;;7.13;5.07;;;;;;;10.52;69.36;98886.84;4889413;29;20067;-79
2022/09/29 01:06:46;;;;;;;8.45;5.45;;;;;;;10.52;69.25;98892.06;4894369;29;20139;-80
2022/09/29 01:09:18;;;;;;;9.80;5.07;;;;;;;10.55;69.31;98897.19;4882135;29;20653;-80
2022/09/29 01:11:43;;;;;;;;;;;;;;;10.52;69.24;98899.03;4911829;29;20048;-78
2022/09/29 01:14:10;;;;;;;10.20;5.18;;;;;;;10.47;69.48;98893.06;4911103;29;20177;-79
2022/09/29 01:16:38;;;;;;;12.15;5.18;;;;;;;10.50;69.63;98909.44;4902682;29;20044;-78
2022/09/29 01:19:15;;;;;;;9.57;5.28;;;;;;;10.46;69.56;98902.63;4901066;29;20059;-78
2022/09/29 01:22:19;;;;;;;7.63;4.97;;;;;;;10.41;69.15;98907.06;4893542;29;20053;-78
2022/09/29 01:25:04;;;;;;;8.32;4.97;;;;;;;10.45;69.15;98895.72;4893516;29;20049;-79
2022/09/29 01:27:38;;;;;;;8.85;5.57;;;;;;;10.40;69.39;98893.19;4893171;29;20055;-79
2022/09/29 01:30:45;;;;;;;9.85;5.15;;;;;;;10.46;69.44;98897.41;4876055;29;20059;-77
2022/09/29 01:33:37;;;;;;;10.20;4.90;;;;;;;10.45;69.60;98905.25;4898723;29;20044;-80
2022/09/29 01:36:23;;;;;;;;;;;;;;;10.42;69.11;98908.78;4908260;29;20040;-79
2022/09/29 01:38:52;;;;;;;7.97;4.88;;;;;;;10.36;69.32;98904.53;4847103;29;20280;-77
2022/09/29 01:41:40;;;;;;;10.13;5.10;;;;;;;10.38;69.28;98912.31;4876237;29;20040;-78
2022/09/29 01:44:18;;;;;;;9.65;4.63;;;;;;;10.36;69.12;98908.88;4891796;29;20049;-79
2022/09/29 01:46:52;;;;;;;9.27;5.63;;;;;;;10.33;69.76;98906.34;4889269;29;20048;-81
2022/09/29 01:49:20;;;;;;;7.78;4.50;;;;;;;10.28;69.61;98901.25;4895153;29;20068;-78
2022/09/29 01:52:19;;;;;;;9.25;5.10;;;;;;;10.30;69.62;98907.28;4882620;29;20082;-77
2022/09/29 01:54:51;;;;;;;8.80;5.00;;;;;;;10.30;69.41;98907.28;4889223;29;20044;-77
2022/09/29 01:57:32;;;;;;;8.80;4.53;;;;;;;10.31;69.63;98913.31;4892710;29;20501;-77
2022/09/29 02:00:10;;;;;;;8.77;5.28;;;;;;;10.29;69.61;98902.97;4889972;29;20041;-77
2022/09/29 02:02:54;;;;;;;10.75;4.45;;;;;;;10.28;69.60;98910.78;4904986;29;20164;-76
2022/09/29 02:05:37;;;;;;;7.00;5.03;;;;;;;10.22;69.87;98898.78;4875498;29;20049;-77
2022/09/29 02:08:18;;;;;;;9.52;4.78;;;;;;;10.18;69.78;98899.72;4890769;29;20410;-77
2022/09/29 02:10:54;;;;;;;9.18;4.85;;;;;;;10.28;70.02;98922.06;4890611;29;20077;-76
2022/09/29 02:13:22;;;;;;;7.45;4.72;;;;;;;10.30;70.08;98922.88;4891401;29;20088;-77
2022/09/29 02:15:53;;;;;;;10.40;4.85;;;;;;;10.20;69.91;98908.34;4886935;29;20143;-77
2022/09/29 02:18:22;;;;;;;9.52;5.55;;;;;;;10.28;70.08;98926.38;4889661;29;20612;-76
2022/09/29 02:20:50;;;;;;;10.07;4.82;;;;;;;10.24;70.04;98925.59;4893782;29;20059;-75
2022/09/29 02:23:16;;;;;;;12.98;5.10;;;;;;;10.33;70.31;98935.81;4891941;29;20044;-77
2022/09/29 02:25:45;;;;;;;7.05;5.40;;;;;;;10.35;70.28;98935.78;4890939;29;20076;-77
2022/09/29 02:28:12;;;;;;;10.75;4.85;;;;;;;10.34;69.93;98923.66;4890374;29;20052;-77
2022/09/29 02:30:38;;;;;;;10.70;5.13;;;;;;;10.30;69.98;98927.19;4888566;29;20069;-76
2022/09/29 02:33:04;;;;;;;11.48;5.32;;;;;;;10.39;70.12;98947.84;4889924;29;20456;-76
2022/09/29 02:36:21;;;;;;;10.48;5.63;;;;;;;10.32;70.18;98930.63;4890397;29;20070;-77
2022/09/29 02:38:56;;;;;;;9.32;5.47;;;;;;;10.38;70.45;98939.19;4882025;29;20048;-77
2022/09/29 02:41:33;;;;;;;14.77;5.55;;;;;;;10.34;69.95;98937.53;4890246;29;20080;-76
2022/09/29 02:44:24;;;;;;;10.25;5.60;;;;;;;10.36;70.04;98937.47;4887604;29;20041;-75
2022/09/29 02:47:08;;;;;;;7.93;5.15;;;;;;;10.29;69.67;98925.50;4884907;29;20048;-77
2022/09/29 02:50:14;;;;;;;9.40;5.53;;;;;;;10.18;70.37;98924.00;4855775;29;20109;-77
2022/09/29 02:52:58;;;;;;;8.32;5.25;;;;;;;10.20;70.63;98921.34;4880445;29;20056;-75
2022/09/29 02:55:39;;;;;;;8.55;5.25;;;;;;;10.12;70.24;98926.72;4890345;29;20049;-76
2022/09/29 02:58:08;;;;;;;6.83;5.00;;;;;;;10.04;70.14;98932.06;4900127;29;20052;-77
2022/09/29 03:00:34;;;;;;;7.05;5.22;;;;;;;10.03;70.66;98919.13;4889690;29;20071;-77
2022/09/29 03:03:00;;;;;;;11.70;6.13;;;;;;;9.99;70.58;98927.88;4891892;29;20127;-77
2022/09/29 03:05:26;;;;;;;10.48;5.93;;;;;;;9.97;70.87;98927.03;4888793;29;20052;-76
2022/09/29 03:07:53;;;;;;;10.02;6.20;;;;;;;9.87;70.69;98919.41;4873410;29;20056;-77
2022/09/29 03:10:19;;;;;;;13.90;7.22;;;;;;;9.95;70.99;98930.53;4890043;29;20393;-77
2022/09/29 03:12:46;;;;;;;11.18;6.13;;;;;;;9.88;71.02;98921.13;4897986;29;20040;-77
2022/09/29 03:15:12;;;;;;;15.75;6.65;;;;;;;9.98;70.78;98939.16;4890807;29;20611;-78
2022/09/29 03:17:39;;;;;;;8.38;5.68;;;;;;;9.93;70.53;98944.44;4877390;29;20041;-76
2022/09/29 03:20:06;;;;;;;12.52;6.20;;;;;;;9.93;71.09;98942.69;4893002;29;20048;-76
2022/09/29 03:22:32;;;;;;;9.70;6.38;;;;;;;9.97;70.83;98950.44;4873113;29;20040;-79
2022/09/29 03:24:58;;;;;;;8.52;5.60;;;;;;;9.95;71.08;98947.84;4870993;29;20072;-77
2022/09/29 03:27:24;;;;;;;13.90;6.00;;;;;;;9.98;71.35;98949.53;4892469;29;20140;-77
2022/09/29 03:29:51;;;;;;;8.65;5.78;;;;;;;10.00;71.52;98952.97;4869959;29;20488;-76
2022/09/29 03:32:17;;;;;;;9.27;6.53;;;;;;;10.07;71.39;98951.94;4888458;29;20056;-76
2022/09/29 03:34:42;;;;;;;10.38;6.68;;;;;;;10.01;70.88;98941.69;4893192;29;20178;-76
2022/09/29 03:37:09;;;;;;;12.85;6.88;;;;;;;9.97;71.05;98946.06;4902169;29;20050;-77
2022/09/29 03:39:35;;;;;;;10.55;6.80;;;;;;;9.82;70.92;98949.81;4910518;29;20048;-77
2022/09/29 03:42:01;;;;;;;13.50;6.70;;;;;;;9.89;71.35;98961.81;4894580;29;20048;-76
2022/09/29 03:44:27;;;;;;;11.85;6.65;;;;;;;9.92;71.33;98969.56;4896095;29;20100;-78
2022/09/29 03:46:53;;;;;;;10.35;6.55;;;;;;;9.92;71.61;98968.72;4894687;29;20052;-76
2022/09/29 03:49:19;;;;;;;11.20;6.10;;;;;;;9.95;71.22;98963.44;4869176;29;20053;-77
2022/09/29 03:51:45;;;;;;;10.30;6.22;;;;;;;10.00;71.76;98965.97;4899214;29;20056;-77
2022/09/29 03:54:11;;;;;;;12.18;6.63;;;;;;;10.03;71.41;98968.50;4894630;29;20059;-77
2022/09/29 03:56:38;;;;;;;8.13;5.75;;;;;;;10.01;71.37;98970.28;4893677;29;20041;-77
2022/09/29 03:59:08;;;;;;;11.95;6.53;;;;;;;10.02;71.43;98972.84;4893977;29;20083;-77
2022/09/29 04:01:34;;;;;;;12.25;6.93;;;;;;;10.01;71.38;98971.13;4891806;29;20047;-78
2022/09/29 04:04:00;;;;;;;9.82;6.18;;;;;;;10.03;71.06;98981.50;4894266;29;20048;-77
2022/09/29 04:06:26;;;;;;;13.23;6.60;;;;;;;10.00;71.23;98973.75;4894487;29;20402;-77
2022/09/29 04:08:52;;;;;;;9.60;6.28;;;;;;;10.08;71.55;98984.84;4899282;29;20151;-78
2022/09/29 04:11:18;;;;;;;9.18;5.60;;;;;;;10.07;71.28;98983.13;4889518;29;20036;-77
2022/09/29 04:13:44;;;;;;;9.93;6.22;;;;;;;10.03;71.10;98976.31;4891416;29;20045;-77
2022/09/29 04:16:10;;;;;;;8.65;6.05;;;;;;;10.05;71.19;98980.56;4893798;29;20132;-79
2022/09/29 04:18:36;;;;;;;8.60;6.47;;;;;;;10.05;71.07;98979.69;4890205;29;20076;-77
2022/09/29 04:21:07;;;;;;;12.80;6.53;;;;;;;10.08;71.22;98987.44;4872593;29;20132;-77
2022/09/29 04:23:34;;;;;;;10.18;6.57;;;;;;;10.06;71.63;98986.63;4875201;29;20476;-76
2022/09/29 04:26:02;;;;;;;9.57;6.43;;;;;;;10.03;71.40;98978.91;4895957;29;20092;-77
2022/09/29 04:28:33;;;;;;;9.88;6.50;;;;;;;10.04;71.44;98983.22;4895509;29;20055;-78
2022/09/29 04:31:00;;;;;;;11.32;6.53;;;;;;;10.10;71.60;98983.94;4892823;29;20044;-77
2022/09/29 04:33:28;;;;;;;9.63;6.05;;;;;;;10.24;72.09;98988.88;4894348;29;20075;-78
2022/09/29 04:35:55;;;;;;;12.63;6.50;;;;;;;10.36;71.51;98992.09;4895366;29;20036;-81
2022/09/29 04:38:21;;;;;;;8.32;5.85;;;;;;;10.46;71.78;98984.97;4893309;29;20055;-77
2022/09/29 04:40:48;;;;;;;10.70;5.50;;;;;;;10.49;71.43;98983.16;4894485;29;20040;-76
2022/09/29 04:43:17;;;;;;;10.38;5.38;;;;;;;10.54;71.70;98983.91;4896675;29;20068;-77
2022/09/29 04:45:43;;;;;;;8.07;5.38;;;;;;;10.63;71.12;98992.44;4901725;29;20041;-78
2022/09/29 04:48:09;;;;;;;10.80;5.47;;;;;;;10.61;71.10;98987.25;4902851;29;20047;-76
2022/09/29 04:50:35;;;;;;;11.15;5.65;;;;;;;10.73;70.77;98993.06;4888283;29;20135;-76
2022/09/29 04:53:01;;;;;;;8.75;5.20;;;;;;;10.62;70.61;98988.13;4899964;29;20052;-78
2022/09/29 04:55:28;;;;;;;14.38;5.85;;;;;;;10.70;71.15;98988.81;4863047;29;20041;-80
2022/09/29 04:57:54;;;;;;;7.00;5.15;;;;;;;10.73;71.29;98980.91;4877019;29;20155;-80
2022/09/29 05:00:20;;;;;;;8.35;5.43;;;;;;;10.83;71.02;98989.38;4892535;29;20053;-80
2022/09/29 05:02:47;;;;;;;8.90;5.03;;;;;;;10.78;70.59;98986.88;4893710;29;20416;-78
2022/09/29 05:05:13;;;;;;;8.80;4.57;;;;;;;10.78;70.96;98994.69;4891691;29;20291;-79
2022/09/29 05:07:40;;;;;;;8.07;4.93;;;;;;;10.78;70.40;99006.84;4892132;29;20063;-76
2022/09/29 05:10:09;;;;;;;6.38;4.68;;;;;;;10.70;70.42;99007.88;4891334;29;20041;-79
2022/09/29 05:12:36;;;;;;;6.60;4.80;;;;;;;10.62;70.46;98988.13;4890820;29;20100;-76
2022/09/29 05:15:03;;;;;;;6.78;4.93;;;;;;;10.78;71.02;98996.44;4891783;29;20044;-77
2022/09/29 05:17:30;;;;;;;5.80;4.45;;;;;;;10.82;70.50;98988.53;4876593;29;20528;-77
2022/09/29 05:19:56;;;;;;;6.25;4.22;;;;;;;10.95;70.22;99004.72;4889346;29;20040;-77
2022/09/29 05:22:23;;;;;;;8.60;4.90;;;;;;;10.93;70.31;99001.28;4890914;29;21225;-79
2022/09/29 05:24:52;;;;;;;7.18;4.22;;;;;;;10.85;69.80;99001.47;4891648;29;20479;-77
2022/09/29 05:27:20;;;;;;;6.97;4.55;;;;;;;10.83;70.45;98994.56;4893723;29;20351;-76
2022/09/29 05:29:46;;;;;;;8.30;4.70;;;;;;;10.90;70.63;98997.91;4890139;29;20041;-77
2022/09/29 05:32:12;;;;;;;5.68;4.32;;;;;;;10.95;70.38;98996.03;4888420;29;20065;-78
2022/09/29 05:34:38;;;;;;;6.88;4.32;;;;;;;11.00;70.17;99002.00;4893371;29;20051;-78
2022/09/29 05:37:11;;;;;;;6.60;4.57;;;;;;;11.08;70.05;99005.28;4873684;29;20040;-79
2022/09/29 05:39:38;;;;;;;8.45;4.50;;;;;;;10.88;69.88;98963.25;4895069;29;20045;-83
2022/09/29 05:42:05;;;;;;;6.00;4.63;;;;;;;11.06;69.67;98993.19;4893181;29;20135;-78
2022/09/29 05:44:35;;;;;;;5.88;4.55;;;;;;;11.19;69.90;99017.19;4876040;29;20139;-78
2022/09/29 05:47:01;;;;;;;9.15;4.72;;;;;;;11.16;69.51;99002.50;4888982;29;20053;-77
2022/09/29 05:49:27;;;;;;;6.35;4.93;;;;;;;11.12;69.67;99016.47;4891664;29;20044;-77
2022/09/29 05:51:53;;;;;;;6.97;5.18;;;;;;;10.91;69.05;99008.28;4873571;29;20067;-77
2022/09/29 05:54:20;;;;;;;7.88;5.22;;;;;;;11.00;69.68;99017.63;4888969;29;20083;-77
2022/09/29 05:56:46;;;;;;;7.13;4.38;;;;;;;11.09;69.89;98993.97;4890236;29;20055;-77
2022/09/29 05:59:12;;;;;;;7.72;4.90;;;;;;;11.33;69.56;99007.31;4857224;29;20142;-75
2022/09/29 06:01:38;;;;;;;7.78;5.07;;;;;;;11.49;69.59;99017.34;4889826;29;20040;-76
2022/09/29 06:04:06;;;;;;;8.30;5.93;;;;;;;11.39;68.94;99033.19;4868341;29;20044;-77
2022/09/29 06:06:35;;;;;;;9.13;5.43;;;;;;;11.29;68.83;99040.34;4874372;29;20124;-75
2022/09/29 06:09:02;;;;;;;8.45;6.28;;;;;;;11.28;69.04;99048.22;4888375;29;20049;-78
2022/09/29 06:11:32;;;;;;;10.43;5.70;;;;;;;11.28;69.41;99043.00;4891311;29;20067;-76
2022/09/29 06:14:00;;;;;;;9.30;5.50;;;;;;;11.37;68.97;99044.53;4892745;29;20044;-79
2022/09/29 06:16:28;;;;;;;7.97;5.82;;;;;;;11.36;68.63;99046.31;4890138;29;20047;-78
2022/09/29 06:18:55;;;;;;;9.02;5.47;;;;;;;11.34;68.67;99039.41;4890446;29;20583;-75
2022/09/29 06:21:23;;;;;;;10.63;6.05;;;;;;;11.33;68.27;99048.97;4886721;29;20080;-77
2022/09/29 06:23:50;;;;;;;11.75;6.22;;;;;;;11.35;68.64;99052.41;4892092;29;20140;-77
2022/09/29 06:26:18;;;;;;;12.65;6.18;;;;;;;11.37;68.90;99037.56;4892068;29;20404;-76
2022/09/29 06:28:44;;;;;;;12.45;6.20;;;;;;;11.49;68.60;99041.63;4887447;29;20052;-76
2022/09/29 06:31:13;;;;;;;13.68;6.25;;;;;;;11.71;68.98;99048.91;4888893;29;20048;-78
2022/09/29 06:33:39;;;;;;;10.00;6.07;;;;;;;11.86;68.25;99045.91;4887117;29;20107;-78
2022/09/29 06:39:06;;;;;;;8.63;5.32;;;;;;;11.80;67.60;99053.88;4891075;29;20048;-76
2022/09/29 06:41:34;;;;;;;10.38;6.13;;;;;;;11.77;67.63;99058.34;4885103;29;20045;-80
2022/09/29 06:44:00;;;;;;;10.43;5.55;;;;;;;11.84;67.86;99057.25;4891050;29;20131;-78
2022/09/29 06:46:26;;;;;;;11.98;5.03;;;;;;;11.81;67.25;99053.00;4905158;29;20040;-80
2022/09/29 06:48:53;;;;;;;7.57;4.97;;;;;;;11.88;67.82;99057.16;4894113;29;20044;-76
2022/09/29 06:51:23;;;;;;;7.40;5.63;;;;;;;11.96;67.46;99061.28;4891892;29;20048;-78
2022/09/29 06:53:50;;;;;;;7.82;5.78;;;;;;;11.93;67.18;99067.47;4901084;29;20101;-76
2022/09/29 06:56:17;;;;;;;16.40;7.80;;;;;;;11.92;67.49;99059.69;4893209;29;20044;-76
2022/09/29 06:58:45;;;;;;;10.52;6.25;;;;;;;12.04;67.37;99049.81;4873925;29;20098;-76
2022/09/29 07:01:11;;;;;;;11.68;7.25;;;;;;;12.15;67.45;99044.28;4873726;29;20131;-77
2022/09/29 07:03:38;;;;;;;9.98;6.40;;;;;;;12.29;66.65;99066.56;4890461;29;20040;-77
2022/09/29 07:06:06;;;;;;;8.25;5.47;;;;;;;12.24;66.70;99064.06;4896998;29;20127;-80
2022/09/29 07:08:35;;;;;;;8.35;5.97;;;;;;;12.24;66.46;99073.63;4892315;29;20108;-78
2022/09/29 07:11:04;;;;;;;10.00;6.90;;;;;;;12.05;66.54;99067.16;4890478;29;20104;-76
2022/09/29 07:13:31;;;;;;;11.13;6.47;;;;;;;12.15;66.71;99066.91;4895756;29;20044;-76
2022/09/29 07:16:05;;;;;;;10.68;5.88;;;;;;;12.29;66.60;99077.81;4896121;29;20044;-78
2022/09/29 07:18:33;;;;;;;9.80;5.80;;;;;;;12.33;66.55;99082.06;4896031;29;20052;-76
2022/09/29 07:21:00;;;;;;;7.60;5.13;;;;;;;12.23;66.20;99074.53;4897297;29;20080;-77
2022/09/29 07:23:26;;;;;;;7.00;5.13;;;;;;;12.14;66.29;99092.13;4873462;29;20037;-79
2022/09/29 07:25:52;;;;;;;6.70;4.93;;;;;;;12.16;66.72;99077.28;4897029;29;20560;-78
2022/09/29 07:28:21;;;;;;;7.07;5.13;;;;;;;12.13;66.16;99089.56;4876850;29;20113;-77
2022/09/29 07:31:04;;;;;;;8.25;5.63;;;;;;;12.11;66.21;99094.84;4894774;29;20084;-77
2022/09/29 07:33:31;;;;;;;8.90;5.70;;;;;;;12.08;66.91;99091.44;4892818;29;20398;-78
2022/09/29 07:35:59;;;;;;;7.70;5.40;;;;;;;12.11;66.64;99097.47;4895573;29;20045;-77
2022/09/29 07:38:29;;;;;;;8.93;5.95;;;;;;;12.21;66.90;99103.28;4882350;29;20044;-76
2022/09/29 07:41:03;;;;;;;10.45;7.05;;;;;;;12.23;66.37;99103.22;4896593;29;20048;-79
2022/09/29 07:43:30;;;;;;;12.63;8.48;;;;;;;12.28;66.64;99109.19;4897847;29;20052;-76
2022/09/29 07:45:58;;;;;;;10.60;6.32;;;;;;;12.27;66.48;99104.88;4902342;29;20576;-76
2022/09/29 07:48:25;;;;;;;11.57;6.38;;;;;;;12.37;66.47;99105.47;4901184;29;20048;-77
2022/09/29 07:50:58;;;;;;;10.15;5.57;;;;;;;12.46;66.48;99113.06;4904128;29;20112;-77
2022/09/29 07:53:25;;;;;;;7.25;5.68;;;;;;;12.46;66.40;99118.28;4913573;29;20330;-77
2022/09/29 07:55:54;;;;;;;10.02;6.05;;;;;;;12.50;66.52;99125.09;4900913;29;20275;-79
2022/09/29 07:58:20;;;;;;;10.80;6.07;;;;;;;12.50;66.12;99117.25;4875599;29;20499;-77
2022/09/29 08:00:53;;;;;;;9.75;5.43;;;;;;;12.48;66.50;99106.88;4896827;29;20055;-78
2022/09/29 08:03:19;;;;;;;10.20;6.28;;;;;;;12.76;66.51;99115.69;4870084;29;20052;-77
2022/09/29 08:05:45;;;;;;;9.38;6.00;;;;;;;12.97;66.40;99116.81;4893828;29;20595;-78
2022/09/29 08:08:12;;;;;;;8.45;6.15;;;;;;;12.97;65.19;99119.44;4896458;29;20140;-77
2022/09/29 08:10:38;;;;;;;9.20;6.07;;;;;;;12.98;65.69;99136.81;4895735;29;20100;-78
2022/09/29 08:13:04;;;;;;;11.18;6.00;;;;;;;13.03;66.07;99139.28;4894463;29;20095;-78
2022/09/29 08:15:30;;;;;;;11.30;6.10;;;;;;;13.07;65.50;99138.28;4895480;29;21225;-78
2022/09/29 08:17:56;;;;;;;11.73;6.63;;;;;;;13.10;65.56;99144.28;4879997;29;20095;-77
2022/09/29 08:20:22;;;;;;;10.95;6.35;;;;;;;13.06;65.28;99137.44;4898434;29;20044;-78
2022/09/29 08:22:48;;;;;;;13.18;7.03;;;;;;;13.19;65.39;99144.91;4898650;29;20048;-79
2022/09/29 08:25:17;;;;;;;11.27;7.03;;;;;;;13.18;65.47;99130.97;4909944;29;20040;-76
2022/09/29 08:27:44;;;;;;;10.63;6.55;;;;;;;13.25;65.63;99144.69;4911919;29;20048;-79
2022/09/29 08:30:11;;;;;;;10.75;6.50;;;;;;;13.20;65.04;99154.47;4881641;29;20059;-76
2022/09/29 08:32:37;;;;;;;10.65;6.20;;;;;;;13.20;65.31;99160.53;4894497;29;20045;-78
2022/09/29 08:35:04;;;;;;;11.10;6.82;;;;;;;13.24;65.30;99143.88;4891691;29;20135;-78
2022/09/29 08:37:30;;;;;;;14.50;6.68;;;;;;;13.43;65.40;99153.78;4876257;29;20041;-77
2022/09/29 08:39:56;;;;;;;9.85;6.40;;;;;;;13.79;65.64;99148.28;4900554;29;20099;-78
2022/09/29 08:42:57;;;;;;;10.57;6.72;;;;;;;13.79;64.63;99170.97;4893388;29;20528;-78
2022/09/29 08:45:57;;;;;;;9.98;6.55;;;;;;;13.59;64.39;99179.44;4887873;29;20068;-77
2022/09/29 08:48:26;;;;;;;13.75;6.95;;;;;;;13.45;64.97;99179.88;4877087;29;20140;-80
2022/09/29 08:50:58;;;;;;;12.13;7.03;;;;;;;13.45;65.19;99193.78;4881645;29;20047;-79
2022/09/29 08:53:28;;;;;;;11.57;7.30;;;;;;;13.29;64.84;99197.75;4872732;29;20109;-82
2022/09/29 08:56:02;;;;;;;13.13;6.97;;;;;;;13.26;65.63;99191.69;4880648;29;20068;-79
2022/09/29 08:58:28;;;;;;;11.43;7.28;;;;;;;13.22;65.18;99182.25;4884931;29;20044;-77
2022/09/29 09:01:22;;;;;;;13.15;7.22;;;;;;;13.19;65.41;99166.66;4886446;29;20131;-79
2022/09/29 09:03:55;;;;;;;15.05;7.20;;;;;;;13.57;65.55;99174.25;4905255;29;20061;-79
2022/09/29 09:06:55;;;;;;;14.65;7.18;;;;;;;13.89;65.35;99168.91;4890507;29;20480;-79
2022/09/29 09:09:24;;;;;;;14.65;6.57;;;;;;;14.58;65.94;99161.31;4891008;29;20057;-78
2022/09/29 09:11:56;;;;;;;11.02;7.25;;;;;;;14.85;64.87;99160.44;4897162;29;20141;-79
2022/09/29 09:14:30;;;;;;;9.63;6.43;;;;;;;14.86;63.78;99177.84;4876323;29;20082;-78
2022/09/29 09:17:12;;;;;;;11.15;6.85;;;;;;;14.72;63.41;99184.44;4889603;29;20093;-77
2022/09/29 09:19:54;;;;;;;11.18;6.97;;;;;;;14.50;63.56;99186.06;4892028;29;20722;-76
2022/09/29 09:22:27;;;;;;;11.63;6.57;;;;;;;14.31;63.57;99189.31;4893238;29;20056;-77
2022/09/29 09:24:57;;;;;;;15.40;7.18;;;;;;;14.17;63.76;99192.38;4889465;29;20082;-78
2022/09/29 09:27:29;;;;;;;13.65;7.45;;;;;;;14.06;63.89;99197.97;4906220;29;20059;-77
2022/09/29 09:30:03;;;;;;;9.27;6.25;;;;;;;14.03;64.09;99186.78;4891100;29;20059;-77
2022/09/29 09:32:48;;;;;;;12.45;7.57;;;;;;;14.00;63.90;99193.81;4890477;29;20571;-85
2022/09/29 09:35:56;;;;;;;13.20;7.32;;;;;;;13.89;64.26;99197.69;4887680;29;20052;-81
2022/09/29 09:38:33;;;;;;;24.67;10.48;;;;;;;13.95;64.75;99214.03;4874329;29;20104;-83
2022/09/29 09:41:04;;;;;;;11.90;7.13;;;;;;;13.93;64.26;99201.91;4894891;29;20045;-80
2022/09/29 09:43:47;;;;;;;14.60;7.50;;;;;;;13.90;64.27;99209.84;4890418;29;20557;-79
2022/09/29 09:46:29;;;;;;;15.85;9.27;;;;;;;13.80;64.98;99212.75;4890363;29;20036;-79
2022/09/29 09:49:13;;;;;;;28.27;11.13;;;;;;;13.91;64.99;99208.94;4874233;29;20093;-79
2022/09/29 09:52:08;;;;;;;14.15;8.10;;;;;;;14.02;65.22;99209.44;4892335;29;20052;-78
2022/09/29 09:54:40;;;;;;;13.90;7.80;;;;;;;13.90;64.07;99202.00;4892953;29;20049;-78
2022/09/29 09:57:09;;;;;;;;;;;;;;;14.14;65.01;99205.56;4886521;29;20072;-82
2022/09/29 09:59:53;;;;;;;15.63;8.40;;;;;;;14.23;64.81;99214.91;4890288;29;19951;-81
2022/09/29 10:02:21;;;;;;;14.25;8.40;;;;;;;14.33;65.00;99202.38;4890137;29;20040;-79
2022/09/29 10:04:50;;;;;;;11.98;7.97;;;;;;;14.48;64.56;99208.81;4890305;29;20094;-83
2022/09/29 10:07:19;;;;;;;12.57;7.82;;;;;;;14.35;64.36;99179.59;4890207;29;20048;-84
2022/09/29 10:09:46;;;;;;;13.40;8.18;;;;;;;14.37;64.00;99210.06;4905798;29;20104;-79
2022/09/29 10:12:21;;;;;;;14.13;7.57;;;;;;;14.37;64.52;99199.59;4852560;29;20437;-81
2022/09/29 10:15:05;;;;;;;13.40;8.30;;;;;;;14.44;64.47;99205.44;4901378;29;20068;-78
2022/09/29 10:17:41;;;;;;;13.93;8.35;;;;;;;14.49;64.29;99210.53;4889476;29;20555;-82
2022/09/29 10:20:08;;;;;;;12.60;7.88;;;;;;;14.49;63.97;99218.38;4905982;29;20096;-81
2022/09/29 10:22:35;;;;;;;16.38;8.27;;;;;;;14.50;64.50;99220.97;4889552;29;20504;-78
2022/09/29 10:25:18;;;;;;;14.45;7.90;;;;;;;14.52;64.40;99221.75;4892546;29;20142;-78
2022/09/29 10:27:52;;;;;;;13.00;7.93;;;;;;;14.73;64.74;99206.25;4889855;29;20053;-80
2022/09/29 10:30:31;;;;;;;13.55;7.63;;;;;;;15.02;64.20;99212.19;4888973;29;20406;-83
2022/09/29 10:33:00;;;;;;;13.45;7.40;;;;;;;15.08;63.54;99218.97;4889028;29;20280;-81
2022/09/29 10:35:40;;;;;;;10.63;7.03;;;;;;;14.90;63.56;99200.38;4906318;29;20108;-79
2022/09/29 10:38:16;;;;;;;13.40;8.13;;;;;;;15.06;63.43;99239.97;4892455;29;20044;-80
2022/09/29 10:41:03;;;;;;;11.98;7.05;;;;;;;15.11;63.71;99237.22;4897175;29;20048;-83
2022/09/29 10:43:43;;;;;;;13.73;7.45;;;;;;;15.09;63.31;99224.16;4875274;29;20539;-81
2022/09/29 10:46:32;;;;;;;13.25;7.90;;;;;;;15.14;63.09;99248.44;4885836;29;20044;-79
2022/09/29 10:49:20;;;;;;;15.63;7.43;;;;;;;15.10;62.98;99246.81;4881723;29;20046;-81
2022/09/29 10:52:15;;;;;;;14.65;7.68;;;;;;;14.95;63.14;99256.09;4888340;29;20048;-80
2022/09/29 10:54:57;;;;;;;11.35;7.03;;;;;;;14.81;62.95;99248.72;4891644;29;20131;-79
2022/09/29 10:57:29;;;;;;;11.23;7.82;;;;;;;14.86;63.15;99272.97;4878949;29;20382;-83
2022/09/29 10:59:57;;;;;;;11.70;7.15;;;;;;;14.77;63.33;99273.31;4888819;29;20048;-78
2022/09/29 11:02:29;;;;;;;14.35;8.43;;;;;;;14.63;62.99;99252.81;4908975;29;20045;-80
2022/09/29 11:04:58;;;;;;;16.40;8.45;;;;;;;14.64;63.15;99274.59;4884832;29;20069;-79
2022/09/29 11:07:34;;;;;;;13.93;7.75;;;;;;;14.60;63.42;99297.41;4876240;29;20048;-81
2022/09/29 11:10:03;;;;;;;16.02;7.22;;;;;;;14.55;63.52;99300.19;4871543;29;20048;-79
2022/09/29 11:12:33;;;;;;;12.85;7.10;;;;;;;14.35;63.82;99279.91;4892644;29;20037;-84
2022/09/29 11:15:00;;;;;;;14.25;7.90;;;;;;;14.48;63.75;99303.03;4892858;29;20059;-85
2022/09/29 11:17:30;;;;;;;14.43;8.07;;;;;;;14.42;63.82;99299.75;4872586;29;20517;-82
2022/09/29 11:20:02;;;;;;;13.50;8.20;;;;;;;14.20;64.03;99267.34;4891709;29;20052;-82
2022/09/29 11:22:57;;;;;;;15.35;8.35;;;;;;;14.45;63.98;99311.88;4890248;29;20056;-81
2022/09/29 11:25:46;;;;;;;14.25;8.52;;;;;;;14.48;64.31;99305.66;4882238;29;20140;-82
2022/09/29 11:28:24;;;;;;;14.45;8.05;;;;;;;14.60;64.45;99305.28;4900105;29;20056;-80
2022/09/29 11:31:27;;;;;;;14.02;7.30;;;;;;;14.78;64.72;99293.38;4893762;29;20063;-83
2022/09/29 11:34:18;;;;;;;13.35;6.50;;;;;;;15.17;64.21;99297.25;4887297;29;20047;-80
2022/09/29 11:37:12;;;;;;;14.90;6.53;;;;;;;15.64;63.93;99296.41;4908332;29;20048;-82
2022/09/29 11:40:00;;;;;;;10.32;6.40;;;;;;;16.01;63.60;99304.66;4887766;29;20076;-83
2022/09/29 11:42:37;;;;;;;10.48;6.03;;;;;;;16.15;63.25;99291.84;4892033;29;20080;-79
2022/09/29 11:45:13;;;;;;;11.23;6.45;;;;;;;16.16;61.98;99309.31;4891270;29;20044;-81
2022/09/29 11:47:57;;;;;;;10.90;6.70;;;;;;;16.16;61.70;99305.81;4887080;29;20068;-83
2022/09/29 11:50:46;;;;;;;9.90;6.57;;;;;;;16.13;61.83;99309.44;4881762;29;20456;-82
2022/09/29 11:53:30;;;;;;;11.63;6.45;;;;;;;16.19;61.71;99310.94;4909122;29;20078;-83
2022/09/29 11:56:21;;;;;;;11.55;6.13;;;;;;;16.37;61.03;99312.00;4880543;29;20036;-83